<?xml version="1.0" encoding="UTF-8" standalone="no" ?>
<gpx xmlns="http://www.topografix.com/GPX/1/1" xmlns:xsi="http://www.w3.org/2001/XMLSchema-instance" xsi:schemaLocation="http://www.topografix.com/GPX/1/1 http://www.topografix.com/GPX/1/1/gpx.xsd" version="1.1" creator="VisuGPX - https://www.visugpx.com">
  <metadata>
    <name>L\'étang d\'Hasselfurth</name>
    <desc><![CDATA[Magnifique boucle au départ de l\'étang d\'Hasselfurth vers l\'étang du Entenbaechel et un dénivelé clément ! J\'ai fait cette boucle aussi au départ d\'Eguelshardt avec pause au restaurant du lac toujours très fréquenté le weekend ! de belles baignades pour les chiens !!! ]]></desc>
  </metadata>
  <trk>
    <name><![CDATA[17240 - TraceGps issued]]></name>
    <trkseg>
      <trkpt lat="49.03973" lon="7.44092">
        <ele>294.139832</ele>
        <time>2010-01-01T00:00:00Z</time>
      </trkpt>
      <trkpt lat="49.03909" lon="7.44081">
        <ele>293.588898</ele>
        <time>2010-01-01T00:00:25Z</time>
      </trkpt>
      <trkpt lat="49.03867" lon="7.44067">
        <ele>294.009155</ele>
        <time>2010-01-01T00:00:42Z</time>
      </trkpt>
      <trkpt lat="49.03804" lon="7.44043">
        <ele>293.805847</ele>
        <time>2010-01-01T00:01:08Z</time>
      </trkpt>
      <trkpt lat="49.0371" lon="7.44033">
        <ele>294.335968</ele>
        <time>2010-01-01T00:01:46Z</time>
      </trkpt>
      <trkpt lat="49.03637" lon="7.44026">
        <ele>294.026428</ele>
        <time>2010-01-01T00:02:15Z</time>
      </trkpt>
      <trkpt lat="49.03577" lon="7.4402">
        <ele>293.76886</ele>
        <time>2010-01-01T00:02:40Z</time>
      </trkpt>
      <trkpt lat="49.03434" lon="7.44006">
        <ele>291.82077</ele>
        <time>2010-01-01T00:03:37Z</time>
      </trkpt>
      <trkpt lat="49.03355" lon="7.44017">
        <ele>292</ele>
        <time>2010-01-01T00:04:09Z</time>
      </trkpt>
      <trkpt lat="49.03258" lon="7.44081">
        <ele>296.340118</ele>
        <time>2010-01-01T00:04:51Z</time>
      </trkpt>
      <trkpt lat="49.03223" lon="7.4417">
        <ele>294.081787</ele>
        <time>2010-01-01T00:05:18Z</time>
      </trkpt>
      <trkpt lat="49.03212" lon="7.44299">
        <ele>296.466187</ele>
        <time>2010-01-01T00:05:52Z</time>
      </trkpt>
      <trkpt lat="49.03189" lon="7.44412">
        <ele>296.161438</ele>
        <time>2010-01-01T00:06:23Z</time>
      </trkpt>
      <trkpt lat="49.03148" lon="7.44431">
        <ele>296.83078</ele>
        <time>2010-01-01T00:06:40Z</time>
      </trkpt>
      <trkpt lat="49.03084" lon="7.44439">
        <ele>296.92691</ele>
        <time>2010-01-01T00:07:06Z</time>
      </trkpt>
      <trkpt lat="49.03026" lon="7.44382">
        <ele>301.261444</ele>
        <time>2010-01-01T00:07:34Z</time>
      </trkpt>
      <trkpt lat="49.02961" lon="7.4432">
        <ele>302.406311</ele>
        <time>2010-01-01T00:08:04Z</time>
      </trkpt>
      <trkpt lat="49.02944" lon="7.443">
        <ele>302.754395</ele>
        <time>2010-01-01T00:08:13Z</time>
      </trkpt>
      <trkpt lat="49.02864" lon="7.4432">
        <ele>302.888306</ele>
        <time>2010-01-01T00:08:45Z</time>
      </trkpt>
      <trkpt lat="49.02742" lon="7.44331">
        <ele>303.202393</ele>
        <time>2010-01-01T00:09:34Z</time>
      </trkpt>
      <trkpt lat="49.0262" lon="7.44333">
        <ele>306.120789</ele>
        <time>2010-01-01T00:10:23Z</time>
      </trkpt>
      <trkpt lat="49.02557" lon="7.44308">
        <ele>306.951782</ele>
        <time>2010-01-01T00:10:49Z</time>
      </trkpt>
      <trkpt lat="49.02507" lon="7.4428">
        <ele>307.032227</ele>
        <time>2010-01-01T00:11:11Z</time>
      </trkpt>
      <trkpt lat="49.02471" lon="7.44263">
        <ele>306.41394</ele>
        <time>2010-01-01T00:11:26Z</time>
      </trkpt>
      <trkpt lat="49.02441" lon="7.44186">
        <ele>306.872589</ele>
        <time>2010-01-01T00:11:49Z</time>
      </trkpt>
      <trkpt lat="49.02429" lon="7.44101">
        <ele>309.057434</ele>
        <time>2010-01-01T00:12:12Z</time>
      </trkpt>
      <trkpt lat="49.0239" lon="7.44097">
        <ele>306.808685</ele>
        <time>2010-01-01T00:12:28Z</time>
      </trkpt>
      <trkpt lat="49.02318" lon="7.44067">
        <ele>307.482544</ele>
        <time>2010-01-01T00:12:58Z</time>
      </trkpt>
      <trkpt lat="49.02295" lon="7.44046">
        <ele>307.680298</ele>
        <time>2010-01-01T00:13:08Z</time>
      </trkpt>
      <trkpt lat="49.02244" lon="7.44097">
        <ele>308.359558</ele>
        <time>2010-01-01T00:13:33Z</time>
      </trkpt>
      <trkpt lat="49.02268" lon="7.44164">
        <ele>308.703217</ele>
        <time>2010-01-01T00:13:53Z</time>
      </trkpt>
      <trkpt lat="49.02332" lon="7.44244">
        <ele>309.604401</ele>
        <time>2010-01-01T00:14:26Z</time>
      </trkpt>
      <trkpt lat="49.02365" lon="7.44321">
        <ele>314.387817</ele>
        <time>2010-01-01T00:14:50Z</time>
      </trkpt>
      <trkpt lat="49.02372" lon="7.44378">
        <ele>316.77887</ele>
        <time>2010-01-01T00:15:05Z</time>
      </trkpt>
      <trkpt lat="49.02322" lon="7.44391">
        <ele>323.00351</ele>
        <time>2010-01-01T00:15:25Z</time>
      </trkpt>
      <trkpt lat="49.02243" lon="7.44407">
        <ele>330.092743</ele>
        <time>2010-01-01T00:15:57Z</time>
      </trkpt>
      <trkpt lat="49.02191" lon="7.44415">
        <ele>337.601685</ele>
        <time>2010-01-01T00:16:18Z</time>
      </trkpt>
      <trkpt lat="49.02105" lon="7.44425">
        <ele>344.485779</ele>
        <time>2010-01-01T00:16:53Z</time>
      </trkpt>
      <trkpt lat="49.02059" lon="7.44421">
        <ele>346.689697</ele>
        <time>2010-01-01T00:17:11Z</time>
      </trkpt>
      <trkpt lat="49.01934" lon="7.44589">
        <ele>354.925232</ele>
        <time>2010-01-01T00:18:18Z</time>
      </trkpt>
      <trkpt lat="49.01856" lon="7.44688">
        <ele>360.078766</ele>
        <time>2010-01-01T00:18:58Z</time>
      </trkpt>
      <trkpt lat="49.01679" lon="7.44846">
        <ele>367.810638</ele>
        <time>2010-01-01T00:20:21Z</time>
      </trkpt>
      <trkpt lat="49.01667" lon="7.449">
        <ele>367.860138</ele>
        <time>2010-01-01T00:20:36Z</time>
      </trkpt>
      <trkpt lat="49.01695" lon="7.44949">
        <ele>369.62381</ele>
        <time>2010-01-01T00:20:53Z</time>
      </trkpt>
      <trkpt lat="49.0174" lon="7.45042">
        <ele>378.347778</ele>
        <time>2010-01-01T00:21:23Z</time>
      </trkpt>
      <trkpt lat="49.01832" lon="7.45106">
        <ele>384.340698</ele>
        <time>2010-01-01T00:22:03Z</time>
      </trkpt>
      <trkpt lat="49.01922" lon="7.45198">
        <ele>389.939301</ele>
        <time>2010-01-01T00:22:47Z</time>
      </trkpt>
      <trkpt lat="49.02001" lon="7.4528">
        <ele>395.307281</ele>
        <time>2010-01-01T00:23:25Z</time>
      </trkpt>
      <trkpt lat="49.02058" lon="7.45365">
        <ele>407.53241</ele>
        <time>2010-01-01T00:23:57Z</time>
      </trkpt>
      <trkpt lat="49.0211" lon="7.45439">
        <ele>422.644287</ele>
        <time>2010-01-01T00:24:25Z</time>
      </trkpt>
      <trkpt lat="49.02156" lon="7.45564">
        <ele>430.665009</ele>
        <time>2010-01-01T00:25:03Z</time>
      </trkpt>
      <trkpt lat="49.02196" lon="7.45702">
        <ele>416.175476</ele>
        <time>2010-01-01T00:25:43Z</time>
      </trkpt>
      <trkpt lat="49.02249" lon="7.458">
        <ele>403.086487</ele>
        <time>2010-01-01T00:26:16Z</time>
      </trkpt>
      <trkpt lat="49.02273" lon="7.4589">
        <ele>390.207306</ele>
        <time>2010-01-01T00:26:42Z</time>
      </trkpt>
      <trkpt lat="49.02295" lon="7.45934">
        <ele>384.651978</ele>
        <time>2010-01-01T00:26:56Z</time>
      </trkpt>
      <trkpt lat="49.02395" lon="7.46013">
        <ele>372.453979</ele>
        <time>2010-01-01T00:27:41Z</time>
      </trkpt>
      <trkpt lat="49.02449" lon="7.46042">
        <ele>371.38562</ele>
        <time>2010-01-01T00:28:04Z</time>
      </trkpt>
      <trkpt lat="49.02467" lon="7.46048">
        <ele>371.917358</ele>
        <time>2010-01-01T00:28:11Z</time>
      </trkpt>
      <trkpt lat="49.02518" lon="7.46127">
        <ele>373.253632</ele>
        <time>2010-01-01T00:28:41Z</time>
      </trkpt>
      <trkpt lat="49.02608" lon="7.46169">
        <ele>369.976044</ele>
        <time>2010-01-01T00:29:18Z</time>
      </trkpt>
      <trkpt lat="49.02679" lon="7.46213">
        <ele>366.546051</ele>
        <time>2010-01-01T00:29:49Z</time>
      </trkpt>
      <trkpt lat="49.0274" lon="7.46279">
        <ele>367.862762</ele>
        <time>2010-01-01T00:30:19Z</time>
      </trkpt>
      <trkpt lat="49.02802" lon="7.46331">
        <ele>372.035858</ele>
        <time>2010-01-01T00:30:47Z</time>
      </trkpt>
      <trkpt lat="49.02865" lon="7.46356">
        <ele>373.369781</ele>
        <time>2010-01-01T00:31:13Z</time>
      </trkpt>
      <trkpt lat="49.02958" lon="7.46314">
        <ele>372.471008</ele>
        <time>2010-01-01T00:31:52Z</time>
      </trkpt>
      <trkpt lat="49.03068" lon="7.46163">
        <ele>371.872314</ele>
        <time>2010-01-01T00:32:51Z</time>
      </trkpt>
      <trkpt lat="49.0315" lon="7.46098">
        <ele>372.344788</ele>
        <time>2010-01-01T00:33:28Z</time>
      </trkpt>
      <trkpt lat="49.03204" lon="7.46047">
        <ele>367.819794</ele>
        <time>2010-01-01T00:33:54Z</time>
      </trkpt>
      <trkpt lat="49.03285" lon="7.46">
        <ele>354.38559</ele>
        <time>2010-01-01T00:34:28Z</time>
      </trkpt>
      <trkpt lat="49.03374" lon="7.45972">
        <ele>346.25119</ele>
        <time>2010-01-01T00:35:05Z</time>
      </trkpt>
      <trkpt lat="49.03456" lon="7.4598">
        <ele>345.046387</ele>
        <time>2010-01-01T00:35:38Z</time>
      </trkpt>
      <trkpt lat="49.03477" lon="7.45982">
        <ele>341.721802</ele>
        <time>2010-01-01T00:35:46Z</time>
      </trkpt>
      <trkpt lat="49.03521" lon="7.46023">
        <ele>339.298523</ele>
        <time>2010-01-01T00:36:07Z</time>
      </trkpt>
      <trkpt lat="49.03593" lon="7.46054">
        <ele>336.987793</ele>
        <time>2010-01-01T00:36:37Z</time>
      </trkpt>
      <trkpt lat="49.03629" lon="7.46066">
        <ele>336.96405</ele>
        <time>2010-01-01T00:36:52Z</time>
      </trkpt>
      <trkpt lat="49.03638" lon="7.46067">
        <ele>336.946564</ele>
        <time>2010-01-01T00:36:55Z</time>
      </trkpt>
      <trkpt lat="49.03663" lon="7.45778">
        <ele>346.21524</ele>
        <time>2010-01-01T00:38:12Z</time>
      </trkpt>
      <trkpt lat="49.03672" lon="7.45622">
        <ele>346.199707</ele>
        <time>2010-01-01T00:38:53Z</time>
      </trkpt>
      <trkpt lat="49.0368" lon="7.45586">
        <ele>346.174652</ele>
        <time>2010-01-01T00:39:03Z</time>
      </trkpt>
      <trkpt lat="49.03723" lon="7.45511">
        <ele>342.738831</ele>
        <time>2010-01-01T00:39:29Z</time>
      </trkpt>
      <trkpt lat="49.0375" lon="7.45444">
        <ele>338.348633</ele>
        <time>2010-01-01T00:39:50Z</time>
      </trkpt>
      <trkpt lat="49.03783" lon="7.45309">
        <ele>333.683533</ele>
        <time>2010-01-01T00:40:27Z</time>
      </trkpt>
      <trkpt lat="49.03802" lon="7.45232">
        <ele>330.063782</ele>
        <time>2010-01-01T00:40:49Z</time>
      </trkpt>
      <trkpt lat="49.03809" lon="7.45131">
        <ele>330.077454</ele>
        <time>2010-01-01T00:41:16Z</time>
      </trkpt>
      <trkpt lat="49.03844" lon="7.45023">
        <ele>325.035553</ele>
        <time>2010-01-01T00:41:47Z</time>
      </trkpt>
      <trkpt lat="49.03881" lon="7.44944">
        <ele>323.862274</ele>
        <time>2010-01-01T00:42:13Z</time>
      </trkpt>
      <trkpt lat="49.03933" lon="7.44791">
        <ele>323.505432</ele>
        <time>2010-01-01T00:42:58Z</time>
      </trkpt>
      <trkpt lat="49.03991" lon="7.44658">
        <ele>317.734283</ele>
        <time>2010-01-01T00:43:40Z</time>
      </trkpt>
      <trkpt lat="49.04049" lon="7.44521">
        <ele>306.50766</ele>
        <time>2010-01-01T00:44:23Z</time>
      </trkpt>
      <trkpt lat="49.04082" lon="7.4439">
        <ele>294.92569</ele>
        <time>2010-01-01T00:45:00Z</time>
      </trkpt>
      <trkpt lat="49.04031" lon="7.44301">
        <ele>293.36615</ele>
        <time>2010-01-01T00:45:30Z</time>
      </trkpt>
      <trkpt lat="49.03987" lon="7.4426">
        <ele>292.303406</ele>
        <time>2010-01-01T00:45:51Z</time>
      </trkpt>
      <trkpt lat="49.04001" lon="7.44215">
        <ele>292</ele>
        <time>2010-01-01T00:46:04Z</time>
      </trkpt>
      <trkpt lat="49.04002" lon="7.44183">
        <ele>292.036652</ele>
        <time>2010-01-01T00:46:13Z</time>
      </trkpt>
      <trkpt lat="49.03993" lon="7.44126">
        <ele>293.6586</ele>
        <time>2010-01-01T00:46:28Z</time>
      </trkpt>
      <trkpt lat="49.03976" lon="7.44092">
        <ele>294.209076</ele>
        <time>2010-01-01T00:46:39Z</time>
      </trkpt>
    </trkseg>
  </trk>
</gpx>